GAP2044 RPVE-RPLL
Flight info
| Callsign | GAP2044 |
|---|---|
| Flight time | 0h 35m |
| Altitude | 22000 |
| Route | MINOR8A MINOR B473 LAIYA LAIYA1A |
| Aircraft | A20N/M-SDE2E3FGHIRWXY/LB1 |
Departure
| Time | 2026-04-22 17:56 |
|---|---|
| Airport | Godofredo P. Ramos Airport (RPVE) |
Arrival
| Time | 2026-04-22 18:31 |
|---|---|
| Airport | Ninoy Aquino International Airport (RPLL) |
| Time | Latitude | Longitude | Altitude | Speed | Heading |
|---|---|---|---|---|---|
| 2026-04-22 17:55 | 11.99146 | 122.04438 | 4670 ft | 264 kts | 27° |
| 2026-04-22 17:56 | 12.00841 | 122.05246 | 5319 ft | 272 kts | 26° |
| 2026-04-22 17:56 | 12.02567 | 122.06072 | 6099 ft | 275 kts | 26° |
| 2026-04-22 17:56 | 12.04282 | 122.06908 | 6842 ft | 278 kts | 26° |
| 2026-04-22 17:56 | 12.06040 | 122.07779 | 7575 ft | 282 kts | 26° |
| 2026-04-22 17:57 | 12.07821 | 122.08672 | 8302 ft | 287 kts | 26° |
| 2026-04-22 17:57 | 12.09625 | 122.09583 | 9036 ft | 292 kts | 25° |
| 2026-04-22 17:57 | 12.11456 | 122.10510 | 9794 ft | 295 kts | 25° |
| 2026-04-22 17:57 | 12.13324 | 122.11458 | 10300 ft | 307 kts | 25° |
| 2026-04-22 17:58 | 12.15302 | 122.12459 | 10581 ft | 326 kts | 25° |
| 2026-04-22 17:58 | 12.17390 | 122.13514 | 10857 ft | 343 kts | 25° |
| 2026-04-22 17:58 | 12.19543 | 122.14600 | 11238 ft | 354 kts | 25° |
| 2026-04-22 17:58 | 12.21773 | 122.15726 | 11764 ft | 359 kts | 25° |
| 2026-04-22 17:59 | 12.24027 | 122.16865 | 12318 ft | 363 kts | 26° |
| 2026-04-22 17:59 | 12.26305 | 122.18017 | 12881 ft | 368 kts | 26° |
| 2026-04-22 17:59 | 12.28616 | 122.19187 | 13465 ft | 371 kts | 26° |
| 2026-04-22 17:59 | 12.30945 | 122.20366 | 13993 ft | 375 kts | 26° |
| 2026-04-22 18:00 | 12.32509 | 122.21112 | 14346 ft | 377 kts | 22° |
| 2026-04-22 18:00 | 12.35922 | 122.21936 | 15044 ft | 380 kts | 1° |
| 2026-04-22 18:00 | 12.38557 | 122.21633 | 15545 ft | 383 kts | 344° |
| 2026-04-22 18:00 | 12.41022 | 122.20580 | 16054 ft | 386 kts | 332° |
| 2026-04-22 18:01 | 12.43334 | 122.19174 | 16539 ft | 390 kts | 327° |
| 2026-04-22 18:01 | 12.45591 | 122.17599 | 17037 ft | 393 kts | 324° |
| 2026-04-22 18:01 | 12.47822 | 122.15952 | 17508 ft | 397 kts | 324° |
| 2026-04-22 18:01 | 12.50059 | 122.14281 | 17969 ft | 400 kts | 324° |
| 2026-04-22 18:02 | 12.52333 | 122.12598 | 18362 ft | 403 kts | 324° |
| 2026-04-22 18:02 | 12.54595 | 122.10950 | 18760 ft | 406 kts | 325° |
| 2026-04-22 18:02 | 12.56912 | 122.09290 | 19149 ft | 407 kts | 325° |
| 2026-04-22 18:02 | 12.59252 | 122.07636 | 19533 ft | 409 kts | 325° |
| 2026-04-22 18:03 | 12.61610 | 122.05985 | 19913 ft | 411 kts | 326° |
| 2026-04-22 18:03 | 12.63982 | 122.04333 | 20276 ft | 412 kts | 326° |
| 2026-04-22 18:03 | 12.66362 | 122.02681 | 20637 ft | 414 kts | 326° |
| 2026-04-22 18:03 | 12.68759 | 122.01018 | 21002 ft | 416 kts | 326° |
| 2026-04-22 18:04 | 12.71158 | 121.99354 | 21390 ft | 418 kts | 326° |
| 2026-04-22 18:04 | 12.73580 | 121.97673 | 21784 ft | 420 kts | 325° |
| 2026-04-22 18:04 | 12.75996 | 121.95995 | 22169 ft | 422 kts | 325° |
| 2026-04-22 18:04 | 12.78434 | 121.94301 | 22562 ft | 423 kts | 325° |
| 2026-04-22 18:05 | 12.80847 | 121.92624 | 22942 ft | 425 kts | 325° |
| 2026-04-22 18:05 | 12.83307 | 121.90913 | 23321 ft | 427 kts | 325° |
| 2026-04-22 18:05 | 12.85769 | 121.89199 | 23675 ft | 429 kts | 325° |
| 2026-04-22 18:05 | 12.88245 | 121.87475 | 23853 ft | 431 kts | 325° |
| 2026-04-22 18:06 | 12.90737 | 121.85738 | 23892 ft | 434 kts | 325° |
| 2026-04-22 18:06 | 12.93228 | 121.84001 | 23890 ft | 435 kts | 325° |
| 2026-04-22 18:06 | 12.95734 | 121.82253 | 23893 ft | 435 kts | 325° |
| 2026-04-22 18:06 | 12.98233 | 121.80509 | 23893 ft | 435 kts | 325° |
| 2026-04-22 18:07 | 13.00743 | 121.78757 | 23895 ft | 435 kts | 325° |
| 2026-04-22 18:07 | 13.03246 | 121.77009 | 23893 ft | 435 kts | 325° |
| 2026-04-22 18:07 | 13.05752 | 121.75259 | 23892 ft | 435 kts | 325° |
| 2026-04-22 18:07 | 13.08253 | 121.73512 | 23895 ft | 435 kts | 325° |
| 2026-04-22 18:08 | 13.10756 | 121.71764 | 23896 ft | 435 kts | 325° |
| 2026-04-22 18:08 | 13.13251 | 121.70021 | 23895 ft | 431 kts | 325° |
| 2026-04-22 18:08 | 13.15728 | 121.68298 | 23899 ft | 430 kts | 325° |
| 2026-04-22 18:08 | 13.18189 | 121.66604 | 23902 ft | 433 kts | 325° |
| 2026-04-22 18:09 | 13.20701 | 121.64870 | 23901 ft | 434 kts | 325° |
| 2026-04-22 18:09 | 13.23202 | 121.63137 | 23899 ft | 434 kts | 325° |
| 2026-04-22 18:09 | 13.25711 | 121.61392 | 23900 ft | 434 kts | 325° |
| 2026-04-22 18:09 | 13.28204 | 121.59654 | 23898 ft | 434 kts | 325° |
| 2026-04-22 18:10 | 13.30703 | 121.57908 | 23896 ft | 434 kts | 325° |
| 2026-04-22 18:10 | 13.33197 | 121.56165 | 23895 ft | 434 kts | 325° |
| 2026-04-22 18:10 | 13.35695 | 121.54417 | 23895 ft | 434 kts | 325° |
| 2026-04-22 18:10 | 13.38183 | 121.52674 | 23899 ft | 433 kts | 324° |
| 2026-04-22 18:11 | 13.40680 | 121.50925 | 23896 ft | 433 kts | 324° |
| 2026-04-22 18:11 | 13.43174 | 121.49178 | 23902 ft | 433 kts | 324° |
| 2026-04-22 18:11 | 13.45621 | 121.47462 | 23901 ft | 433 kts | 324° |
| 2026-04-22 18:11 | 13.48116 | 121.45712 | 23901 ft | 431 kts | 324° |
| 2026-04-22 18:12 | 13.50587 | 121.43980 | 23898 ft | 427 kts | 324° |
| 2026-04-22 18:12 | 13.53038 | 121.42262 | 23899 ft | 425 kts | 324° |
| 2026-04-22 18:12 | 13.54659 | 121.41125 | 23900 ft | 424 kts | 324° |
| 2026-04-22 18:12 | 13.57921 | 121.38840 | 23901 ft | 424 kts | 325° |
| 2026-04-22 18:13 | 13.60361 | 121.37140 | 23902 ft | 424 kts | 325° |
| 2026-04-22 18:13 | 13.62799 | 121.35442 | 23900 ft | 424 kts | 325° |
| 2026-04-22 18:13 | 13.65243 | 121.33742 | 23903 ft | 424 kts | 325° |
| 2026-04-22 18:13 | 13.67688 | 121.32039 | 23902 ft | 424 kts | 325° |
| 2026-04-22 18:14 | 13.70099 | 121.30361 | 23906 ft | 424 kts | 325° |
| 2026-04-22 18:14 | 13.72535 | 121.28664 | 23908 ft | 424 kts | 325° |
| 2026-04-22 18:14 | 13.74978 | 121.26963 | 23805 ft | 419 kts | 325° |
| 2026-04-22 18:14 | 13.77391 | 121.25282 | 23061 ft | 421 kts | 325° |
| 2026-04-22 18:15 | 13.79835 | 121.23576 | 22049 ft | 428 kts | 325° |
| 2026-04-22 18:15 | 13.82298 | 121.21854 | 21260 ft | 428 kts | 325° |
| 2026-04-22 18:15 | 13.84757 | 121.20134 | 20565 ft | 426 kts | 325° |
| 2026-04-22 18:15 | 13.87195 | 121.18428 | 19898 ft | 424 kts | 325° |
| 2026-04-22 18:16 | 13.89637 | 121.16720 | 19205 ft | 422 kts | 325° |
| 2026-04-22 18:16 | 13.92061 | 121.15024 | 18517 ft | 421 kts | 326° |
| 2026-04-22 18:16 | 13.94510 | 121.13372 | 17716 ft | 420 kts | 331° |
| 2026-04-22 18:16 | 13.97226 | 121.12317 | 17056 ft | 415 kts | 347° |
| 2026-04-22 18:17 | 14.00048 | 121.11751 | 16408 ft | 410 kts | 351° |
| 2026-04-22 18:17 | 14.02857 | 121.11294 | 15740 ft | 406 kts | 351° |
| 2026-04-22 18:17 | 14.05592 | 121.10850 | 15272 ft | 398 kts | 351° |
| 2026-04-22 18:17 | 14.08285 | 121.10391 | 14760 ft | 390 kts | 351° |
| 2026-04-22 18:18 | 14.10961 | 121.09915 | 14115 ft | 388 kts | 350° |
| 2026-04-22 18:18 | 14.13606 | 121.09432 | 13496 ft | 384 kts | 350° |
| 2026-04-22 18:18 | 14.16220 | 121.08946 | 12805 ft | 381 kts | 350° |
| 2026-04-22 18:18 | 14.18820 | 121.08457 | 12119 ft | 378 kts | 350° |
| 2026-04-22 18:19 | 14.21412 | 121.07966 | 11449 ft | 375 kts | 351° |
| 2026-04-22 18:19 | 14.23971 | 121.07479 | 10797 ft | 372 kts | 351° |
| 2026-04-22 18:19 | 14.26502 | 121.06996 | 10271 ft | 367 kts | 351° |
| 2026-04-22 18:19 | 14.28944 | 121.06525 | 10080 ft | 344 kts | 351° |
| 2026-04-22 18:20 | 14.31205 | 121.06081 | 9939 ft | 319 kts | 351° |
| 2026-04-22 18:20 | 14.33319 | 121.05662 | 9661 ft | 301 kts | 351° |
| 2026-04-22 18:20 | 14.35352 | 121.05259 | 9134 ft | 294 kts | 351° |
| 2026-04-22 18:20 | 14.37338 | 121.04870 | 8686 ft | 287 kts | 351° |
| 2026-04-22 18:21 | 14.39275 | 121.04493 | 8281 ft | 280 kts | 351° |
| 2026-04-22 18:21 | 14.41145 | 121.04132 | 7919 ft | 274 kts | 351° |
| 2026-04-22 18:21 | 14.43012 | 121.03772 | 7556 ft | 273 kts | 351° |
| 2026-04-22 18:21 | 14.44884 | 121.03389 | 7142 ft | 276 kts | 346° |
| 2026-04-22 18:22 | 14.46625 | 121.02570 | 6776 ft | 277 kts | 324° |
| 2026-04-22 18:22 | 14.47898 | 121.01083 | 6417 ft | 279 kts | 298° |
| 2026-04-22 18:22 | 14.48417 | 120.99168 | 6017 ft | 280 kts | 272° |
| 2026-04-22 18:22 | 14.48074 | 120.97205 | 5622 ft | 280 kts | 247° |
| 2026-04-22 18:23 | 14.47194 | 120.95423 | 5228 ft | 279 kts | 239° |
| 2026-04-22 18:23 | 14.46202 | 120.93707 | 4841 ft | 276 kts | 238° |
| 2026-04-22 18:23 | 14.45220 | 120.92025 | 4460 ft | 274 kts | 239° |
| 2026-04-22 18:24 | 14.43309 | 120.88662 | 3701 ft | 269 kts | 239° |
| 2026-04-22 18:24 | 14.42386 | 120.87002 | 3429 ft | 263 kts | 239° |
| 2026-04-22 18:24 | 14.40970 | 120.83704 | 3105 ft | 244 kts | 263° |
| 2026-04-22 18:25 | 14.41126 | 120.82040 | 2991 ft | 231 kts | 288° |
| 2026-04-22 18:25 | 14.41883 | 120.80650 | 2858 ft | 216 kts | 314° |
| 2026-04-22 18:25 | 14.43122 | 120.79922 | 2730 ft | 201 kts | 350° |
| 2026-04-22 18:26 | 14.45554 | 120.80800 | 2273 ft | 188 kts | 39° |
| 2026-04-22 18:26 | 14.46329 | 120.81851 | 2013 ft | 185 kts | 74° |
| 2026-04-22 18:26 | 14.46465 | 120.83150 | 1768 ft | 182 kts | 96° |
| 2026-04-22 18:26 | 14.46274 | 120.84446 | 1632 ft | 183 kts | 102° |
| 2026-04-22 18:27 | 14.46082 | 120.85290 | 1616 ft | 183 kts | 108° |
| 2026-04-22 18:27 | 14.45457 | 120.86897 | 1600 ft | 172 kts | 114° |
| 2026-04-22 18:27 | 14.45000 | 120.87942 | 1611 ft | 148 kts | 114° |
| 2026-04-22 18:27 | 14.44582 | 120.88878 | 1613 ft | 142 kts | 115° |
| 2026-04-22 18:28 | 14.44455 | 120.89867 | 1608 ft | 142 kts | 81° |
| 2026-04-22 18:28 | 14.44709 | 120.90836 | 1617 ft | 142 kts | 69° |
| 2026-04-22 18:28 | 14.44996 | 120.91459 | 1616 ft | 143 kts | 63° |
| 2026-04-22 18:28 | 14.45645 | 120.92645 | 1618 ft | 143 kts | 62° |
| 2026-04-22 18:29 | 14.45980 | 120.93246 | 1621 ft | 143 kts | 62° |
| 2026-04-22 18:29 | 14.46470 | 120.94126 | 1616 ft | 143 kts | 62° |
| 2026-04-22 18:29 | 14.46966 | 120.95021 | 1615 ft | 151 kts | 63° |
| 2026-04-22 18:29 | 14.47465 | 120.95999 | 1325 ft | 147 kts | 65° |
| 2026-04-22 18:30 | 14.47899 | 120.96884 | 1152 ft | 134 kts | 62° |
| 2026-04-22 18:30 | 14.48879 | 120.98521 | 717 ft | 132 kts | 59° |
| 2026-04-22 18:30 | 14.49383 | 120.99352 | 430 ft | 138 kts | 59° |
| 2026-04-22 18:31 | 14.49894 | 121.00211 | 151 ft | 140 kts | 62° |
| 2026-04-22 18:31 | 14.50366 | 121.01032 | 67 ft | 122 kts | 60° |
| 2026-04-22 18:31 | 14.50643 | 121.01550 | 55 ft | 41 kts | 60° |
| 2026-04-22 18:31 | 14.50728 | 121.01685 | 53 ft | 20 kts | 40° |
| 2026-04-22 18:32 | 14.50837 | 121.01775 | 45 ft | 13 kts | 33° |
| 2026-04-22 18:32 | 14.50900 | 121.01774 | 36 ft | 4 kts | 320° |
| 2026-04-22 18:32 | 14.50904 | 121.01771 | 36 ft | 0 kts | 317° |
| 2026-04-22 18:33 | 14.50904 | 121.01770 | 36 ft | 1 kts | 317° |
| 2026-04-22 18:33 | 14.50948 | 121.01724 | 33 ft | 16 kts | 302° |
| 2026-04-22 18:33 | 14.50926 | 121.01628 | 38 ft | 15 kts | 241° |
| 2026-04-22 18:33 | 14.50871 | 121.01529 | 43 ft | 17 kts | 241° |
| 2026-04-22 18:34 | 14.50837 | 121.01456 | 48 ft | 7 kts | 278° |
| 2026-04-22 18:34 | 14.50887 | 121.01425 | 45 ft | 10 kts | 335° |
| 2026-04-22 18:34 | 14.50904 | 121.01414 | 44 ft | 0 kts | 329° |
| 2026-04-22 18:35 | 14.50908 | 121.01412 | 44 ft | 0 kts | 329° |